sensor_id;sensor_type;location;lat;lon;timestamp;pressure;altitude;pressure_sealevel;temperature;humidity
17209;BME280;8720;48.488;9.202;2023-07-31T00:00:23;97123.13;;;19.87;49.12
17209;BME280;8720;48.488;9.202;2023-07-31T00:02:52;97122.38;;;19.85;48.84
17209;BME280;8720;48.488;9.202;2023-07-31T00:05:19;97124.25;;;19.83;49.20
17209;BME280;8720;48.488;9.202;2023-07-31T00:07:47;97121.69;;;19.82;49.21
17209;BME280;8720;48.488;9.202;2023-07-31T00:10:14;97124.41;;;19.80;49.00
17209;BME280;8720;48.488;9.202;2023-07-31T00:12:44;97121.97;;;19.77;49.44
17209;BME280;8720;48.488;9.202;2023-07-31T00:15:13;97121.19;;;19.75;49.30
17209;BME280;8720;48.488;9.202;2023-07-31T00:17:42;97113.41;;;19.72;49.27
17209;BME280;8720;48.488;9.202;2023-07-31T00:20:10;97116.25;;;19.69;49.63
17209;BME280;8720;48.488;9.202;2023-07-31T00:22:37;97114.69;;;19.65;49.56
17209;BME280;8720;48.488;9.202;2023-07-31T00:25:05;97107.97;;;19.60;49.92
17209;BME280;8720;48.488;9.202;2023-07-31T00:27:33;97113.38;;;19.58;49.95
17209;BME280;8720;48.488;9.202;2023-07-31T00:30:00;97121.47;;;19.55;49.77
17209;BME280;8720;48.488;9.202;2023-07-31T00:32:27;97125.19;;;19.53;49.86
17209;BME280;8720;48.488;9.202;2023-07-31T00:34:56;97122.63;;;19.51;50.05
17209;BME280;8720;48.488;9.202;2023-07-31T00:37:23;97133.41;;;19.48;49.86
17209;BME280;8720;48.488;9.202;2023-07-31T00:39:50;97129.97;;;19.46;49.67
17209;BME280;8720;48.488;9.202;2023-07-31T00:42:17;97130.19;;;19.43;49.98
17209;BME280;8720;48.488;9.202;2023-07-31T00:44:45;97132.97;;;19.40;50.00
17209;BME280;8720;48.488;9.202;2023-07-31T00:47:12;97128.72;;;19.38;50.08
17209;BME280;8720;48.488;9.202;2023-07-31T00:49:39;97131.44;;;19.36;50.18
17209;BME280;8720;48.488;9.202;2023-07-31T00:52:10;97130.69;;;19.34;50.42
17209;BME280;8720;48.488;9.202;2023-07-31T00:54:37;97119.28;;;19.32;50.47
17209;BME280;8720;48.488;9.202;2023-07-31T00:57:06;97118.53;;;19.30;50.09
17209;BME280;8720;48.488;9.202;2023-07-31T00:59:34;97113.38;;;19.27;50.56
17209;BME280;8720;48.488;9.202;2023-07-31T01:02:03;97107.31;;;19.25;50.81
17209;BME280;8720;48.488;9.202;2023-07-31T01:04:31;97110.03;;;19.24;50.50
17209;BME280;8720;48.488;9.202;2023-07-31T01:07:09;97115.44;;;19.22;50.72
17209;BME280;8720;48.488;9.202;2023-07-31T01:09:47;97101.56;;;19.17;50.73
17209;BME280;8720;48.488;9.202;2023-07-31T01:12:23;97106.72;;;19.20;50.82
17209;BME280;8720;48.488;9.202;2023-07-31T01:14:52;97105.00;;;19.19;50.69
17209;BME280;8720;48.488;9.202;2023-07-31T01:17:19;97105.84;;;19.20;50.73
17209;BME280;8720;48.488;9.202;2023-07-31T01:19:48;97111.16;;;19.20;50.43
17209;BME280;8720;48.488;9.202;2023-07-31T01:25:53;97086.28;;;19.07;50.63
17209;BME280;8720;48.488;9.202;2023-07-31T01:28:33;97094.47;;;19.18;50.87
17209;BME280;8720;48.488;9.202;2023-07-31T01:31:10;97100.81;;;19.15;50.56
17209;BME280;8720;48.488;9.202;2023-07-31T01:33:39;97098.50;;;19.09;50.84
17209;BME280;8720;48.488;9.202;2023-07-31T01:36:08;97091.50;;;19.08;50.85
17209;BME280;8720;48.488;9.202;2023-07-31T01:38:35;97086.38;;;19.05;51.08
17209;BME280;8720;48.488;9.202;2023-07-31T01:41:04;97086.38;;;19.05;50.91
17209;BME280;8720;48.488;9.202;2023-07-31T01:43:31;97078.47;;;19.03;51.12
17209;BME280;8720;48.488;9.202;2023-07-31T01:45:58;97065.84;;;18.93;51.26
17209;BME280;8720;48.488;9.202;2023-07-31T01:48:26;97076.94;;;18.99;51.15
17209;BME280;8720;48.488;9.202;2023-07-31T01:50:53;97079.69;;;18.98;51.40
17209;BME280;8720;48.488;9.202;2023-07-31T01:53:20;97064.44;;;18.86;51.48
17209;BME280;8720;48.488;9.202;2023-07-31T01:55:48;97081.06;;;18.89;51.44
17209;BME280;8720;48.488;9.202;2023-07-31T01:58:16;97078.47;;;18.88;51.50
17209;BME280;8720;48.488;9.202;2023-07-31T02:03:25;97071.63;;;18.84;51.67
17209;BME280;8720;48.488;9.202;2023-07-31T02:05:54;97078.66;;;18.85;51.39
17209;BME280;8720;48.488;9.202;2023-07-31T02:08:25;97077.03;;;18.82;51.74
17209;BME280;8720;48.488;9.202;2023-07-31T02:10:52;97072.69;;;18.81;51.84
17209;BME280;8720;48.488;9.202;2023-07-31T02:13:20;97071.81;;;18.81;52.00
17209;BME280;8720;48.488;9.202;2023-07-31T02:15:48;97068.41;;;18.79;51.95
17209;BME280;8720;48.488;9.202;2023-07-31T02:18:16;97058.75;;;18.78;52.23
17209;BME280;8720;48.488;9.202;2023-07-31T02:20:43;97060.53;;;18.77;51.73
17209;BME280;8720;48.488;9.202;2023-07-31T02:23:15;97048.31;;;18.75;52.27
17209;BME280;8720;48.488;9.202;2023-07-31T02:25:43;97043.97;;;18.74;52.06
17209;BME280;8720;48.488;9.202;2023-07-31T02:28:10;97038.81;;;18.71;52.12
17209;BME280;8720;48.488;9.202;2023-07-31T02:30:39;97035.31;;;18.70;52.50
17209;BME280;8720;48.488;9.202;2023-07-31T02:33:06;97031.81;;;18.70;52.65
17209;BME280;8720;48.488;9.202;2023-07-31T02:35:33;97027.53;;;18.67;52.53
17209;BME280;8720;48.488;9.202;2023-07-31T02:38:01;97036.34;;;18.68;52.69
17209;BME280;8720;48.488;9.202;2023-07-31T02:40:28;97031.97;;;18.67;52.57
17209;BME280;8720;48.488;9.202;2023-07-31T02:42:55;97031.03;;;18.68;52.50
17209;BME280;8720;48.488;9.202;2023-07-31T02:45:23;97031.03;;;18.68;52.65
17209;BME280;8720;48.488;9.202;2023-07-31T02:47:52;97026.59;;;18.68;52.60
17209;BME280;8720;48.488;9.202;2023-07-31T02:50:20;97029.25;;;18.68;52.34
17209;BME280;8720;48.488;9.202;2023-07-31T02:52:48;97023.09;;;18.68;52.35
17209;BME280;8720;48.488;9.202;2023-07-31T02:55:15;97030.19;;;18.67;52.34
17209;BME280;8720;48.488;9.202;2023-07-31T02:57:42;97027.44;;;18.69;52.12
17209;BME280;8720;48.488;9.202;2023-07-31T03:00:10;97018.56;;;18.70;52.20
17209;BME280;8720;48.488;9.202;2023-07-31T03:02:38;97017.59;;;18.71;52.21
17209;BME280;8720;48.488;9.202;2023-07-31T03:05:07;97016.69;;;18.72;52.20
17209;BME280;8720;48.488;9.202;2023-07-31T03:07:35;97015.63;;;18.74;52.25
17209;BME280;8720;48.488;9.202;2023-07-31T03:10:03;97018.28;;;18.74;51.96
17209;BME280;8720;48.488;9.202;2023-07-31T03:12:31;97022.56;;;18.77;51.98
17209;BME280;8720;48.488;9.202;2023-07-31T03:14:58;97020.78;;;18.77;52.30
17209;BME280;8720;48.488;9.202;2023-07-31T03:17:25;97008.53;;;18.75;52.27
17209;BME280;8720;48.488;9.202;2023-07-31T03:19:53;97015.56;;;18.76;52.32
17209;BME280;8720;48.488;9.202;2023-07-31T03:22:21;97011.28;;;18.73;52.44
17209;BME280;8720;48.488;9.202;2023-07-31T03:24:49;97007.88;;;18.71;52.46
17209;BME280;8720;48.488;9.202;2023-07-31T03:27:16;97013.34;;;18.68;52.57
17209;BME280;8720;48.488;9.202;2023-07-31T03:29:43;97010.28;;;18.60;52.44
17209;BME280;8720;48.488;9.202;2023-07-31T03:32:10;97019.06;;;18.61;52.77
17209;BME280;8720;48.488;9.202;2023-07-31T03:34:38;97015.81;;;18.56;52.63
17209;BME280;8720;48.488;9.202;2023-07-31T03:37:06;97018.66;;;18.53;52.71
17209;BME280;8720;48.488;9.202;2023-07-31T03:39:36;97016.06;;;18.51;52.91
17209;BME280;8720;48.488;9.202;2023-07-31T03:42:05;97025.88;;;18.49;52.57
17209;BME280;8720;48.488;9.202;2023-07-31T03:44:32;97034.00;;;18.46;52.67
17209;BME280;8720;48.488;9.202;2023-07-31T03:46:59;97036.66;;;18.46;52.95
17209;BME280;8720;48.488;9.202;2023-07-31T03:49:27;97043.75;;;18.46;53.61
17209;BME280;8720;48.488;9.202;2023-07-31T03:51:54;97047.34;;;18.45;53.36
17209;BME280;8720;48.488;9.202;2023-07-31T03:54:21;97034.09;;;18.45;52.94
17209;BME280;8720;48.488;9.202;2023-07-31T03:56:50;97028.81;;;18.45;53.36
17209;BME280;8720;48.488;9.202;2023-07-31T03:59:17;97028.03;;;18.43;53.40
17209;BME280;8720;48.488;9.202;2023-07-31T04:01:44;97034.19;;;18.43;53.25
17209;BME280;8720;48.488;9.202;2023-07-31T04:04:12;97038.53;;;18.44;53.40
17209;BME280;8720;48.488;9.202;2023-07-31T04:06:39;97037.63;;;18.45;53.53
17209;BME280;8720;48.488;9.202;2023-07-31T04:09:06;97038.44;;;18.46;53.65
17209;BME280;8720;48.488;9.202;2023-07-31T04:11:33;97034.88;;;18.47;53.64
17209;BME280;8720;48.488;9.202;2023-07-31T04:14:02;97027.72;;;18.49;53.51
17209;BME280;8720;48.488;9.202;2023-07-31T04:16:29;97040.00;;;18.50;53.64
17209;BME280;8720;48.488;9.202;2023-07-31T04:18:56;97048.72;;;18.52;53.53
17209;BME280;8720;48.488;9.202;2023-07-31T04:21:24;97050.25;;;18.56;53.43
17209;BME280;8720;48.488;9.202;2023-07-31T04:23:51;97034.22;;;18.59;53.79
17209;BME280;8720;48.488;9.202;2023-07-31T04:26:21;97031.28;;;18.63;53.67
17209;BME280;8720;48.488;9.202;2023-07-31T04:28:48;97026.66;;;18.67;53.78
17209;BME280;8720;48.488;9.202;2023-07-31T04:31:17;97032.41;;;18.75;53.95
17209;BME280;8720;48.488;9.202;2023-07-31T04:33:44;97026.50;;;18.85;53.50
17209;BME280;8720;48.488;9.202;2023-07-31T04:36:11;97009.06;;;18.97;53.74
17209;BME280;8720;48.488;9.202;2023-07-31T04:38:39;97011.75;;;19.11;53.58
17209;BME280;8720;48.488;9.202;2023-07-31T04:41:07;97005.72;;;19.23;53.44
17209;BME280;8720;48.488;9.202;2023-07-31T04:43:34;97006.16;;;19.61;53.40
17209;BME280;8720;48.488;9.202;2023-07-31T04:46:01;97007.00;;;19.61;52.66
17209;BME280;8720;48.488;9.202;2023-07-31T04:48:30;97008.72;;;19.62;53.07
17209;BME280;8720;48.488;9.202;2023-07-31T04:50:57;97016.59;;;19.64;52.87
17209;BME280;8720;48.488;9.202;2023-07-31T04:53:24;97022.41;;;19.70;53.00
17209;BME280;8720;48.488;9.202;2023-07-31T04:55:51;97014.53;;;19.83;53.03
17209;BME280;8720;48.488;9.202;2023-07-31T04:58:19;97018.84;;;20.00;53.04
17209;BME280;8720;48.488;9.202;2023-07-31T05:00:46;97017.88;;;20.15;52.59
17209;BME280;8720;48.488;9.202;2023-07-31T05:03:13;97014.59;;;20.25;52.27
17209;BME280;8720;48.488;9.202;2023-07-31T05:05:42;97012.19;;;20.35;52.08
17209;BME280;8720;48.488;9.202;2023-07-31T05:08:09;97017.13;;;20.41;52.33
17209;BME280;8720;48.488;9.202;2023-07-31T05:10:36;97007.38;;;20.41;51.72
17209;BME280;8720;48.488;9.202;2023-07-31T05:13:04;97017.41;;;20.50;51.71
17209;BME280;8720;48.488;9.202;2023-07-31T05:15:31;97016.53;;;20.50;51.67
17209;BME280;8720;48.488;9.202;2023-07-31T05:17:58;97024.81;;;20.59;51.46
17209;BME280;8720;48.488;9.202;2023-07-31T05:20:26;97020.16;;;20.63;51.63
17209;BME280;8720;48.488;9.202;2023-07-31T05:22:54;97016.38;;;20.94;50.75
17209;BME280;8720;48.488;9.202;2023-07-31T05:25:22;97027.13;;;20.92;50.84
17209;BME280;8720;48.488;9.202;2023-07-31T05:27:49;97020.09;;;20.91;50.77
17209;BME280;8720;48.488;9.202;2023-07-31T05:30:16;97005.84;;;20.92;50.90
17209;BME280;8720;48.488;9.202;2023-07-31T05:32:44;97021.59;;;20.95;50.74
17209;BME280;8720;48.488;9.202;2023-07-31T05:35:11;97019.47;;;21.00;50.95
17209;BME280;8720;48.488;9.202;2023-07-31T05:37:38;97022.34;;;21.11;50.56
17209;BME280;8720;48.488;9.202;2023-07-31T05:40:08;97016.75;;;21.28;50.35
17209;BME280;8720;48.488;9.202;2023-07-31T05:42:35;97026.91;;;21.48;50.23
17209;BME280;8720;48.488;9.202;2023-07-31T05:45:06;97028.81;;;21.86;50.53
17209;BME280;8720;48.488;9.202;2023-07-31T05:47:33;97021.38;;;22.16;49.70
17209;BME280;8720;48.488;9.202;2023-07-31T05:50:01;97018.41;;;22.33;49.66
17209;BME280;8720;48.488;9.202;2023-07-31T05:52:28;97023.81;;;22.44;49.20
17209;BME280;8720;48.488;9.202;2023-07-31T05:54:55;97024.88;;;22.54;48.96
17209;BME280;8720;48.488;9.202;2023-07-31T05:57:24;97024.44;;;22.60;48.48
17209;BME280;8720;48.488;9.202;2023-07-31T05:59:51;97025.72;;;22.67;48.57
17209;BME280;8720;48.488;9.202;2023-07-31T06:02:19;97028.56;;;22.77;48.46
17209;BME280;8720;48.488;9.202;2023-07-31T06:04:46;97026.03;;;22.99;48.59
17209;BME280;8720;48.488;9.202;2023-07-31T06:07:13;97015.81;;;23.16;48.13
17209;BME280;8720;48.488;9.202;2023-07-31T06:09:41;97020.38;;;23.27;47.96
17209;BME280;8720;48.488;9.202;2023-07-31T06:12:08;97012.78;;;23.33;47.10
17209;BME280;8720;48.488;9.202;2023-07-31T06:14:37;97007.34;;;23.35;47.34
17209;BME280;8720;48.488;9.202;2023-07-31T06:17:05;97009.03;;;23.36;46.71
17209;BME280;8720;48.488;9.202;2023-07-31T06:19:32;97007.34;;;23.35;47.28
17209;BME280;8720;48.488;9.202;2023-07-31T06:21:59;97013.78;;;23.32;47.82
17209;BME280;8720;48.488;9.202;2023-07-31T06:24:27;97015.78;;;23.29;47.70
17209;BME280;8720;48.488;9.202;2023-07-31T06:26:55;97008.00;;;23.26;47.72
17209;BME280;8720;48.488;9.202;2023-07-31T06:29:23;97007.16;;;23.25;47.70
17209;BME280;8720;48.488;9.202;2023-07-31T06:31:52;97003.50;;;23.26;47.64
17209;BME280;8720;48.488;9.202;2023-07-31T06:34:19;97002.34;;;23.30;47.54
17209;BME280;8720;48.488;9.202;2023-07-31T06:36:46;97000.91;;;23.37;47.59
17209;BME280;8720;48.488;9.202;2023-07-31T06:39:13;97003.56;;;23.61;47.70
17209;BME280;8720;48.488;9.202;2023-07-31T06:41:41;96991.78;;;24.20;47.63
17209;BME280;8720;48.488;9.202;2023-07-31T06:44:10;97009.53;;;24.99;46.74
17209;BME280;8720;48.488;9.202;2023-07-31T06:46:38;97002.50;;;25.72;45.93
17209;BME280;8720;48.488;9.202;2023-07-31T06:49:06;97003.19;;;26.36;44.70
17209;BME280;8720;48.488;9.202;2023-07-31T06:51:34;96996.38;;;27.02;43.88
17209;BME280;8720;48.488;9.202;2023-07-31T06:54:02;96987.72;;;27.57;42.72
17209;BME280;8720;48.488;9.202;2023-07-31T06:56:29;96984.44;;;27.92;42.11
17209;BME280;8720;48.488;9.202;2023-07-31T06:58:56;96987.75;;;28.42;41.42
17209;BME280;8720;48.488;9.202;2023-07-31T07:01:24;96983.66;;;29.02;40.60
17209;BME280;8720;48.488;9.202;2023-07-31T07:03:51;96982.13;;;29.44;40.04
17209;BME280;8720;48.488;9.202;2023-07-31T07:06:22;96993.75;;;29.62;39.63
17209;BME280;8720;48.488;9.202;2023-07-31T07:08:49;97002.81;;;29.71;38.97
17209;BME280;8720;48.488;9.202;2023-07-31T07:11:16;96996.53;;;29.70;38.60
17209;BME280;8720;48.488;9.202;2023-07-31T07:13:44;96999.13;;;29.62;38.21
17209;BME280;8720;48.488;9.202;2023-07-31T07:16:11;96998.38;;;29.52;37.92
17209;BME280;8720;48.488;9.202;2023-07-31T07:18:38;96994.75;;;29.43;38.15
17209;BME280;8720;48.488;9.202;2023-07-31T07:21:06;96997.59;;;29.42;37.87
17209;BME280;8720;48.488;9.202;2023-07-31T07:23:34;96993.13;;;29.50;38.15
17209;BME280;8720;48.488;9.202;2023-07-31T07:26:02;96999.38;;;29.69;38.16
17209;BME280;8720;48.488;9.202;2023-07-31T07:28:29;97007.03;;;29.91;37.41
17209;BME280;8720;48.488;9.202;2023-07-31T07:30:56;96990.50;;;30.11;37.15
17209;BME280;8720;48.488;9.202;2023-07-31T07:33:24;96990.53;;;30.37;36.81
17209;BME280;8720;48.488;9.202;2023-07-31T07:35:51;96987.69;;;30.72;36.32
17209;BME280;8720;48.488;9.202;2023-07-31T07:38:18;96983.78;;;31.00;36.06
17209;BME280;8720;48.488;9.202;2023-07-31T07:40:48;96987.06;;;31.20;35.14
17209;BME280;8720;48.488;9.202;2023-07-31T07:43:16;96989.63;;;31.29;35.40
17209;BME280;8720;48.488;9.202;2023-07-31T07:45:43;96971.03;;;31.34;35.19
17209;BME280;8720;48.488;9.202;2023-07-31T07:48:11;96973.63;;;31.44;35.35
17209;BME280;8720;48.488;9.202;2023-07-31T07:50:39;96976.53;;;31.51;34.55
17209;BME280;8720;48.488;9.202;2023-07-31T07:53:06;96971.09;;;31.51;34.56
17209;BME280;8720;48.488;9.202;2023-07-31T07:55:33;96977.88;;;31.47;34.50
17209;BME280;8720;48.488;9.202;2023-07-31T07:58:03;96948.63;;;31.50;34.30
17209;BME280;8720;48.488;9.202;2023-07-31T08:00:30;96968.75;;;31.88;34.59
17209;BME280;8720;48.488;9.202;2023-07-31T08:02:58;96975.38;;;32.17;33.77
17209;BME280;8720;48.488;9.202;2023-07-31T08:05:25;96972.28;;;32.29;33.49
17209;BME280;8720;48.488;9.202;2023-07-31T08:07:52;96967.72;;;32.37;33.06
17209;BME280;8720;48.488;9.202;2023-07-31T08:10:19;96973.44;;;32.58;32.59
17209;BME280;8720;48.488;9.202;2023-07-31T08:12:47;96968.13;;;32.81;32.06
17209;BME280;8720;48.488;9.202;2023-07-31T08:15:15;96964.03;;;32.85;31.26
17209;BME280;8720;48.488;9.202;2023-07-31T08:17:44;96958.50;;;32.70;31.07
17209;BME280;8720;48.488;9.202;2023-07-31T08:20:12;96959.56;;;32.53;31.02
17209;BME280;8720;48.488;9.202;2023-07-31T08:22:40;96957.41;;;32.49;31.12
17209;BME280;8720;48.488;9.202;2023-07-31T08:25:08;96955.19;;;32.52;31.26
17209;BME280;8720;48.488;9.202;2023-07-31T08:27:35;96949.88;;;32.67;31.11
17209;BME280;8720;48.488;9.202;2023-07-31T08:30:04;96949.47;;;32.86;31.10
17209;BME280;8720;48.488;9.202;2023-07-31T08:32:32;96940.97;;;32.97;30.73
17209;BME280;8720;48.488;9.202;2023-07-31T08:35:00;96936.13;;;33.15;30.55
17209;BME280;8720;48.488;9.202;2023-07-31T08:37:28;96934.94;;;33.40;30.23
17209;BME280;8720;48.488;9.202;2023-07-31T08:39:55;96933.28;;;33.62;30.25
17209;BME280;8720;48.488;9.202;2023-07-31T08:42:24;96938.59;;;33.78;30.06
17209;BME280;8720;48.488;9.202;2023-07-31T08:44:53;96939.88;;;33.90;29.64
17209;BME280;8720;48.488;9.202;2023-07-31T08:47:22;96941.13;;;34.02;29.19
17209;BME280;8720;48.488;9.202;2023-07-31T08:49:52;96939.38;;;34.09;29.12
17209;BME280;8720;48.488;9.202;2023-07-31T08:52:20;96938.34;;;34.10;28.90
17209;BME280;8720;48.488;9.202;2023-07-31T08:54:47;96933.44;;;34.06;28.91
17209;BME280;8720;48.488;9.202;2023-07-31T08:57:15;96932.81;;;34.04;28.45
17209;BME280;8720;48.488;9.202;2023-07-31T08:59:45;96930.09;;;34.04;28.52
17209;BME280;8720;48.488;9.202;2023-07-31T09:02:15;96928.94;;;33.98;28.36
17209;BME280;8720;48.488;9.202;2023-07-31T09:04:44;96927.38;;;33.81;28.30
17209;BME280;8720;48.488;9.202;2023-07-31T09:07:15;96934.16;;;33.62;28.45
17209;BME280;8720;48.488;9.202;2023-07-31T09:09:45;96933.41;;;33.46;28.28
17209;BME280;8720;48.488;9.202;2023-07-31T09:12:13;96929.94;;;33.29;28.32
17209;BME280;8720;48.488;9.202;2023-07-31T09:14:42;96928.88;;;33.08;28.67
17209;BME280;8720;48.488;9.202;2023-07-31T09:17:09;96924.03;;;32.87;28.65
17209;BME280;8720;48.488;9.202;2023-07-31T09:19:36;96918.38;;;32.66;28.64
17209;BME280;8720;48.488;9.202;2023-07-31T09:22:05;96917.44;;;32.51;29.35
17209;BME280;8720;48.488;9.202;2023-07-31T09:24:34;96918.09;;;32.37;28.76
17209;BME280;8720;48.488;9.202;2023-07-31T09:27:02;96914.44;;;32.22;29.35
17209;BME280;8720;48.488;9.202;2023-07-31T09:29:30;96922.25;;;32.08;29.63
17209;BME280;8720;48.488;9.202;2023-07-31T09:31:57;96910.75;;;31.98;28.95
17209;BME280;8720;48.488;9.202;2023-07-31T09:34:30;96919.34;;;31.86;29.45
17209;BME280;8720;48.488;9.202;2023-07-31T09:37:05;96906.84;;;31.77;29.64
17209;BME280;8720;48.488;9.202;2023-07-31T09:39:46;96914.81;;;31.70;29.96
17209;BME280;8720;48.488;9.202;2023-07-31T09:42:14;96915.63;;;31.63;30.11
17209;BME280;8720;48.488;9.202;2023-07-31T09:44:50;96912.09;;;31.54;29.97
17209;BME280;8720;48.488;9.202;2023-07-31T09:47:24;96908.91;;;31.51;30.17
17209;BME280;8720;48.488;9.202;2023-07-31T09:49:51;96905.16;;;31.44;30.21
17209;BME280;8720;48.488;9.202;2023-07-31T09:52:18;96898.19;;;31.33;30.18
17209;BME280;8720;48.488;9.202;2023-07-31T09:54:47;96888.88;;;31.19;29.77
17209;BME280;8720;48.488;9.202;2023-07-31T09:57:17;96880.41;;;31.06;30.14
17209;BME280;8720;48.488;9.202;2023-07-31T09:59:47;96874.50;;;30.95;30.28
17209;BME280;8720;48.488;9.202;2023-07-31T10:02:21;96868.22;;;30.86;30.15
17209;BME280;8720;48.488;9.202;2023-07-31T10:04:50;96861.75;;;30.79;30.85
17209;BME280;8720;48.488;9.202;2023-07-31T10:07:20;96867.28;;;30.78;30.73
17209;BME280;8720;48.488;9.202;2023-07-31T10:09:51;96850.44;;;30.76;30.89
17209;BME280;8720;48.488;9.202;2023-07-31T10:12:25;96852.16;;;30.85;31.46
17209;BME280;8720;48.488;9.202;2023-07-31T10:14:54;96840.00;;;30.89;30.81
17209;BME280;8720;48.488;9.202;2023-07-31T10:17:23;96844.56;;;30.88;31.07
17209;BME280;8720;48.488;9.202;2023-07-31T10:19:50;96843.72;;;30.88;30.77
17209;BME280;8720;48.488;9.202;2023-07-31T10:22:19;96822.72;;;30.82;30.94
17209;BME280;8720;48.488;9.202;2023-07-31T10:24:50;96830.31;;;30.78;31.18
17209;BME280;8720;48.488;9.202;2023-07-31T10:27:17;96816.13;;;30.76;31.45
17209;BME280;8720;48.488;9.202;2023-07-31T10:29:45;96825.25;;;30.75;31.19
17209;BME280;8720;48.488;9.202;2023-07-31T10:32:17;96821.03;;;30.73;31.22
17209;BME280;8720;48.488;9.202;2023-07-31T10:34:45;96815.28;;;30.68;31.15
17209;BME280;8720;48.488;9.202;2023-07-31T10:37:25;96806.78;;;30.55;31.64
17209;BME280;8720;48.488;9.202;2023-07-31T10:39:59;96816.59;;;30.56;31.26
17209;BME280;8720;48.488;9.202;2023-07-31T10:42:31;96811.16;;;30.48;31.48
17209;BME280;8720;48.488;9.202;2023-07-31T10:45:03;96806.59;;;30.40;31.92
17209;BME280;8720;48.488;9.202;2023-07-31T10:47:31;96792.22;;;30.31;31.47
17209;BME280;8720;48.488;9.202;2023-07-31T10:50:17;96782.50;;;30.13;31.79
17209;BME280;8720;48.488;9.202;2023-07-31T10:52:48;96790.44;;;30.14;31.61
17209;BME280;8720;48.488;9.202;2023-07-31T10:55:28;96797.84;;;30.12;31.64
17209;BME280;8720;48.488;9.202;2023-07-31T10:58:07;96801.41;;;30.13;31.87
17209;BME280;8720;48.488;9.202;2023-07-31T11:00:38;96799.84;;;30.10;31.90
17209;BME280;8720;48.488;9.202;2023-07-31T11:03:08;96788.72;;;30.05;31.58
17209;BME280;8720;48.488;9.202;2023-07-31T11:05:53;96790.38;;;29.98;32.04
17209;BME280;8720;48.488;9.202;2023-07-31T11:08:23;96777.53;;;29.92;32.25
17209;BME280;8720;48.488;9.202;2023-07-31T11:11:07;96776.31;;;29.87;32.00
17209;BME280;8720;48.488;9.202;2023-07-31T11:13:41;96777.81;;;29.81;32.32
17209;BME280;8720;48.488;9.202;2023-07-31T11:16:09;96776.31;;;29.87;32.49
17209;BME280;8720;48.488;9.202;2023-07-31T11:18:39;96778.84;;;29.88;32.02
17209;BME280;8720;48.488;9.202;2023-07-31T11:21:07;96778.22;;;29.94;31.80
17209;BME280;8720;48.488;9.202;2023-07-31T11:23:37;96782.31;;;30.06;32.24
17209;BME280;8720;48.488;9.202;2023-07-31T11:26:07;96769.50;;;30.16;31.77
17209;BME280;8720;48.488;9.202;2023-07-31T11:28:35;96772.25;;;30.24;31.46
17209;BME280;8720;48.488;9.202;2023-07-31T11:31:03;96763.53;;;30.30;31.38
17209;BME280;8720;48.488;9.202;2023-07-31T11:33:30;96765.91;;;30.41;31.78
17209;BME280;8720;48.488;9.202;2023-07-31T11:35:58;96762.94;;;30.53;31.56
17209;BME280;8720;48.488;9.202;2023-07-31T11:38:27;96760.22;;;30.69;31.66
17209;BME280;8720;48.488;9.202;2023-07-31T11:41:00;96761.59;;;30.81;31.00
17209;BME280;8720;48.488;9.202;2023-07-31T11:43:31;96763.69;;;30.95;31.66
17209;BME280;8720;48.488;9.202;2023-07-31T11:46:00;96764.00;;;31.08;31.07
17209;BME280;8720;48.488;9.202;2023-07-31T11:48:31;96752.84;;;31.19;30.64
17209;BME280;8720;48.488;9.202;2023-07-31T11:51:02;96753.03;;;31.25;31.19
17209;BME280;8720;48.488;9.202;2023-07-31T11:53:36;96757.22;;;31.36;31.03
17209;BME280;8720;48.488;9.202;2023-07-31T11:56:06;96748.94;;;31.46;30.72
17209;BME280;8720;48.488;9.202;2023-07-31T11:58:37;96739.97;;;31.53;30.71
17209;BME280;8720;48.488;9.202;2023-07-31T12:01:05;96734.91;;;31.58;30.77
17209;BME280;8720;48.488;9.202;2023-07-31T12:03:34;96742.66;;;31.61;30.78
17209;BME280;8720;48.488;9.202;2023-07-31T12:06:02;96739.78;;;31.63;30.98
17209;BME280;8720;48.488;9.202;2023-07-31T12:08:29;96738.97;;;31.62;30.51
17209;BME280;8720;48.488;9.202;2023-07-31T12:11:03;96726.31;;;31.55;30.77
17209;BME280;8720;48.488;9.202;2023-07-31T12:13:33;96729.34;;;31.52;30.23
17209;BME280;8720;48.488;9.202;2023-07-31T12:16:03;96726.63;;;31.44;31.24
17209;BME280;8720;48.488;9.202;2023-07-31T12:18:36;96714.50;;;31.23;31.08
17209;BME280;8720;48.488;9.202;2023-07-31T12:21:06;96719.72;;;31.17;31.28
17209;BME280;8720;48.488;9.202;2023-07-31T12:23:36;96725.66;;;31.04;32.11
17209;BME280;8720;48.488;9.202;2023-07-31T12:26:06;96727.19;;;30.99;31.84
17209;BME280;8720;48.488;9.202;2023-07-31T12:28:38;96719.09;;;30.91;31.48
17209;BME280;8720;48.488;9.202;2023-07-31T12:31:09;96713.28;;;30.78;32.04
17209;BME280;8720;48.488;9.202;2023-07-31T12:33:38;96707.38;;;30.66;32.05
17209;BME280;8720;48.488;9.202;2023-07-31T12:36:09;96704.53;;;30.60;32.14
17209;BME280;8720;48.488;9.202;2023-07-31T12:38:37;96684.91;;;30.50;31.68
17209;BME280;8720;48.488;9.202;2023-07-31T12:41:04;96698.25;;;30.59;31.92
17209;BME280;8720;48.488;9.202;2023-07-31T12:43:32;96690.66;;;30.63;32.12
17209;BME280;8720;48.488;9.202;2023-07-31T12:46:00;96679.38;;;30.67;31.70
17209;BME280;8720;48.488;9.202;2023-07-31T12:48:29;96681.56;;;30.72;31.75
17209;BME280;8720;48.488;9.202;2023-07-31T12:50:56;96676.31;;;30.78;31.49
17209;BME280;8720;48.488;9.202;2023-07-31T12:53:23;96683.97;;;30.83;31.69
17209;BME280;8720;48.488;9.202;2023-07-31T12:55:51;96678.38;;;30.84;31.40
17209;BME280;8720;48.488;9.202;2023-07-31T12:58:18;96663.69;;;30.87;31.51
17209;BME280;8720;48.488;9.202;2023-07-31T13:00:45;96658.28;;;30.87;31.73
17209;BME280;8720;48.488;9.202;2023-07-31T13:03:12;96661.16;;;30.85;31.88
17209;BME280;8720;48.488;9.202;2023-07-31T13:05:41;96646.41;;;30.80;31.14
17209;BME280;8720;48.488;9.202;2023-07-31T13:08:09;96654.22;;;30.75;31.60
17209;BME280;8720;48.488;9.202;2023-07-31T13:10:36;96641.38;;;30.69;31.78
17209;BME280;8720;48.488;9.202;2023-07-31T13:13:03;96640.38;;;30.70;31.58
17209;BME280;8720;48.488;9.202;2023-07-31T13:15:30;96637.16;;;30.74;31.64
17209;BME280;8720;48.488;9.202;2023-07-31T13:17:58;96639.53;;;30.77;31.61
17209;BME280;8720;48.488;9.202;2023-07-31T13:20:25;96629.03;;;30.82;31.57
17209;BME280;8720;48.488;9.202;2023-07-31T13:22:54;96622.13;;;30.88;31.42